createdAt,value
2022-10-12T00:00:43.866Z,5.43
2022-10-12T00:05:43.781Z,5.52
2022-10-12T00:10:43.762Z,5.56
2022-10-12T00:15:43.644Z,5.56
2022-10-12T00:20:43.735Z,5.56
2022-10-12T00:25:43.503Z,5.56
2022-10-12T00:30:43.483Z,5.55
2022-10-12T00:35:43.381Z,5.52
2022-10-12T00:40:43.382Z,5.46
2022-10-12T00:45:43.236Z,5.37
2022-10-12T00:50:43.197Z,5.23
2022-10-12T00:55:43.119Z,5.10
2022-10-12T01:00:43.096Z,5.07
2022-10-12T01:05:43.012Z,5.09
2022-10-12T01:10:42.896Z,4.96
2022-10-12T01:15:50.899Z,5.01
2022-10-12T01:20:51.002Z,4.91
2022-10-12T01:25:42.701Z,4.96
2022-10-12T01:30:42.654Z,5.05
2022-10-12T01:35:42.613Z,5.02
2022-10-12T01:40:42.482Z,5.01
2022-10-12T01:45:42.507Z,4.88
2022-10-12T01:50:42.388Z,4.99
2022-10-12T01:55:42.290Z,5.10
2022-10-12T02:00:42.307Z,5.05
2022-10-12T02:05:42.192Z,4.99
2022-10-12T02:10:42.108Z,5.01
2022-10-12T02:15:42.884Z,5.01
2022-10-12T02:20:41.969Z,4.94
2022-10-12T02:25:41.991Z,4.88
2022-10-12T02:30:41.832Z,4.61
2022-10-12T02:35:41.787Z,4.44
2022-10-12T02:40:41.707Z,4.59
2022-10-12T02:45:41.632Z,4.52
2022-10-12T02:50:41.566Z,4.52
2022-10-12T02:55:41.546Z,4.58
2022-10-12T03:00:41.442Z,4.75
2022-10-12T03:05:41.412Z,4.59
2022-10-12T03:10:41.338Z,4.32
2022-10-12T03:15:41.312Z,4.28
2022-10-12T03:20:41.206Z,4.24
2022-10-12T03:25:41.104Z,4.32
2022-10-12T03:30:41.457Z,4.37
2022-10-12T03:35:40.978Z,4.40
2022-10-12T03:40:40.924Z,4.36
2022-10-12T03:45:40.881Z,4.22
2022-10-12T03:50:40.835Z,4.15
2022-10-12T03:55:40.756Z,4.12
2022-10-12T04:00:40.668Z,4.03
2022-10-12T04:05:40.661Z,3.94
2022-10-12T04:10:40.526Z,3.86
2022-10-12T04:15:40.522Z,3.94
2022-10-12T04:20:40.404Z,3.92
2022-10-12T04:25:40.348Z,4.01
2022-10-12T04:30:40.324Z,3.98
2022-10-12T04:35:40.219Z,4.01
2022-10-12T04:40:40.157Z,3.98
2022-10-12T04:45:40.111Z,3.94
2022-10-12T04:50:47.106Z,3.94
2022-10-12T04:55:39.957Z,3.97
2022-10-12T05:00:39.877Z,3.97
2022-10-12T05:05:39.873Z,4.00
2022-10-12T05:10:39.928Z,3.96
2022-10-12T05:15:39.724Z,3.97
2022-10-12T05:20:39.642Z,3.94
2022-10-12T05:25:39.720Z,4.08
2022-10-12T05:30:39.752Z,4.06
2022-10-12T05:35:41.865Z,4.22
2022-10-12T05:40:40.547Z,4.16
2022-10-12T05:45:39.321Z,4.14
2022-10-12T05:50:39.233Z,4.19
2022-10-12T05:55:39.185Z,4.18
2022-10-12T06:00:39.090Z,4.32
2022-10-12T06:05:39.045Z,4.95
2022-10-12T06:10:39.029Z,5.81
2022-10-12T06:15:38.940Z,6.36
2022-10-12T06:20:38.869Z,6.71
2022-10-12T06:25:38.887Z,7.19
2022-10-12T06:30:38.744Z,7.84
2022-10-12T06:35:38.641Z,7.77
2022-10-12T06:40:39.321Z,7.96
2022-10-12T06:45:38.506Z,8.14
2022-10-12T06:50:38.453Z,8.87
2022-10-12T06:55:38.354Z,9.81
2022-10-12T07:00:38.293Z,10.26
2022-10-12T07:05:38.283Z,10.19
2022-10-12T07:10:38.185Z,10.22
2022-10-12T07:15:38.095Z,11.01
2022-10-12T07:20:38.036Z,11.59
2022-10-12T07:25:38.016Z,11.78
2022-10-12T07:30:37.901Z,12.04
2022-10-12T07:35:51.471Z,12.08
2022-10-12T07:40:38.809Z,12.33
2022-10-12T07:45:37.706Z,12.15
2022-10-12T07:50:37.822Z,12.19
2022-10-12T07:55:37.601Z,11.65
2022-10-12T08:00:37.501Z,11.99
2022-10-12T08:05:37.552Z,12.12
2022-10-12T08:10:37.390Z,12.46
2022-10-12T08:15:37.324Z,12.42
2022-10-12T08:20:37.225Z,12.44
2022-10-12T08:25:37.174Z,12.57
2022-10-12T08:30:37.106Z,12.74
2022-10-12T08:35:37.814Z,12.56
2022-10-12T08:40:37.004Z,12.41
2022-10-12T08:45:36.938Z,12.48
2022-10-12T08:50:36.866Z,12.78
2022-10-12T08:55:36.783Z,13.25
2022-10-12T09:00:36.761Z,13.24
2022-10-12T09:05:36.645Z,13.38
2022-10-12T09:10:36.583Z,13.56
2022-10-12T09:15:36.508Z,13.71
2022-10-12T09:20:36.447Z,13.92
2022-10-12T09:25:36.368Z,14.06
2022-10-12T09:30:36.614Z,14.16
2022-10-12T09:35:36.222Z,14.44
2022-10-12T09:40:36.159Z,14.67
2022-10-12T09:45:36.122Z,14.81
2022-10-12T09:50:36.049Z,15.05
2022-10-12T09:55:36.000Z,15.27
2022-10-12T10:00:35.891Z,15.36
2022-10-12T10:05:35.874Z,15.48
2022-10-12T10:10:35.760Z,15.54
2022-10-12T10:15:35.721Z,15.67
2022-10-12T10:20:35.609Z,15.96
2022-10-12T10:25:35.570Z,16.23
2022-10-12T10:30:40.579Z,16.16
2022-10-12T10:35:36.423Z,16.49
2022-10-12T10:40:35.378Z,16.62
2022-10-12T10:45:35.316Z,16.62
2022-10-12T10:50:35.293Z,16.86
2022-10-12T10:55:35.165Z,17.06
2022-10-12T11:00:40.304Z,17.26
2022-10-12T11:05:36.116Z,17.17
2022-10-12T11:10:34.958Z,17.25
2022-10-12T11:15:34.950Z,17.41
2022-10-12T11:20:34.891Z,17.30
2022-10-12T11:25:34.898Z,17.10
2022-10-12T11:30:34.862Z,17.25
2022-10-12T11:35:35.840Z,17.28
2022-10-12T11:41:02.467Z,17.41
2022-10-12T11:45:35.471Z,17.44
2022-10-12T11:50:34.498Z,17.48
2022-10-12T11:55:34.341Z,17.40
2022-10-12T12:00:34.322Z,17.46
2022-10-12T12:05:34.447Z,17.50
2022-10-12T12:10:34.157Z,17.38
2022-10-12T12:15:34.108Z,17.33
2022-10-12T12:20:34.060Z,17.28
2022-10-12T12:25:33.937Z,17.33
2022-10-12T12:30:33.870Z,17.44
2022-10-12T12:35:33.810Z,17.46
2022-10-12T12:40:33.826Z,17.41
2022-10-12T12:45:33.818Z,17.38
2022-10-12T12:50:33.633Z,17.38
2022-10-12T12:55:33.554Z,17.35
2022-10-12T13:00:38.138Z,17.29
2022-10-12T13:05:34.443Z,17.10
2022-10-12T13:10:33.532Z,17.04
2022-10-12T13:15:33.284Z,17.13
2022-10-12T13:20:33.225Z,17.25
2022-10-12T13:25:33.149Z,17.32
2022-10-12T13:30:33.095Z,17.35
2022-10-12T13:35:33.022Z,17.36
2022-10-12T13:40:32.997Z,17.30
2022-10-12T13:45:32.923Z,17.26
2022-10-12T13:50:32.856Z,17.22
2022-10-12T13:55:32.786Z,17.30
2022-10-12T14:00:32.707Z,17.33
2022-10-12T14:05:32.653Z,17.30
2022-10-12T14:10:32.586Z,17.22
2022-10-12T14:15:32.521Z,17.22
2022-10-12T14:20:32.451Z,17.18
2022-10-12T14:25:32.362Z,17.14
2022-10-12T14:30:32.314Z,17.07
2022-10-12T14:35:32.249Z,17.08
2022-10-12T14:40:32.194Z,17.00
2022-10-12T14:45:32.131Z,17.03
2022-10-12T14:50:32.046Z,16.99
2022-10-12T14:55:31.991Z,16.92
2022-10-12T15:00:31.914Z,16.85
2022-10-12T15:05:31.892Z,16.70
2022-10-12T15:10:31.771Z,16.58
2022-10-12T15:15:31.716Z,16.58
2022-10-12T15:20:32.052Z,16.55
2022-10-12T15:25:31.573Z,16.34
2022-10-12T15:30:31.541Z,16.18
2022-10-12T15:35:31.446Z,16.03
2022-10-12T15:40:31.395Z,15.88
2022-10-12T15:45:31.373Z,15.63
2022-10-12T15:50:31.247Z,15.39
2022-10-12T15:55:31.166Z,15.31
2022-10-12T16:00:31.474Z,15.11
2022-10-12T16:05:31.040Z,15.01
2022-10-12T16:10:30.984Z,14.86
2022-10-12T16:15:30.898Z,14.71
2022-10-12T16:20:30.839Z,14.68
2022-10-12T16:25:30.778Z,14.57
2022-10-12T16:30:37.759Z,14.43
2022-10-12T16:35:30.641Z,14.16
2022-10-12T16:40:30.591Z,14.12
2022-10-12T16:45:30.512Z,13.89
2022-10-12T16:50:30.464Z,13.71
2022-10-12T16:55:30.384Z,13.55
2022-10-12T17:00:30.399Z,13.27
2022-10-12T17:05:30.265Z,13.12
2022-10-12T17:10:30.190Z,12.95
2022-10-12T17:15:30.102Z,12.87
2022-10-12T17:20:30.094Z,12.88
2022-10-12T17:25:29.977Z,12.74
2022-10-12T17:30:30.094Z,12.59
2022-10-12T17:35:29.852Z,12.51
2022-10-12T17:40:29.822Z,12.42
2022-10-12T17:45:29.731Z,12.34
2022-10-12T17:50:29.632Z,12.26
2022-10-12T17:55:47.555Z,12.05
2022-10-12T18:00:30.533Z,11.87
2022-10-12T18:05:29.440Z,11.61
2022-10-12T18:10:29.421Z,11.39
2022-10-12T18:15:29.312Z,11.34
2022-10-12T18:20:29.303Z,11.35
2022-10-12T18:25:29.221Z,11.24
2022-10-12T18:30:29.198Z,11.11
2022-10-12T18:35:29.379Z,11.07
2022-10-12T18:40:29.010Z,11.01
2022-10-12T18:45:28.916Z,10.88
2022-10-12T18:50:28.859Z,10.92
2022-10-12T18:55:28.827Z,10.78
2022-10-12T19:00:28.799Z,10.66
2022-10-12T19:05:28.656Z,10.63
2022-10-12T19:10:28.582Z,10.44
2022-10-12T19:15:28.554Z,10.36
2022-10-12T19:20:28.504Z,10.10
2022-10-12T19:25:28.416Z,9.93
2022-10-12T19:30:28.406Z,9.85
2022-10-12T19:35:28.235Z,9.76
2022-10-12T19:40:28.361Z,9.66
2022-10-12T19:45:28.158Z,9.57
2022-10-12T19:50:28.049Z,9.43
2022-10-12T19:55:27.966Z,9.34
2022-10-12T20:00:28.045Z,9.28
2022-10-12T20:05:27.828Z,9.16
2022-10-12T20:10:27.764Z,9.05
2022-10-12T20:15:27.860Z,9.15
2022-10-12T20:20:27.633Z,9.01
2022-10-12T20:25:27.588Z,8.99
2022-10-12T20:30:27.502Z,8.99
2022-10-12T20:35:27.427Z,8.99
2022-10-12T20:40:27.388Z,8.97
2022-10-12T20:45:27.319Z,8.93
2022-10-12T20:50:27.231Z,8.90
2022-10-12T20:55:27.166Z,8.90
2022-10-12T21:00:27.099Z,8.88
2022-10-12T21:05:27.049Z,8.73
2022-10-12T21:10:27.024Z,8.73
2022-10-12T21:15:26.916Z,8.73
2022-10-12T21:20:27.048Z,8.73
2022-10-12T21:25:27.673Z,8.72
2022-10-12T21:30:26.720Z,8.54
2022-10-12T21:35:26.644Z,8.48
2022-10-12T21:40:26.604Z,8.40
2022-10-12T21:45:26.568Z,8.39
2022-10-12T21:50:26.492Z,8.28
2022-10-12T21:55:26.431Z,8.25
2022-10-12T22:00:26.431Z,8.17
2022-10-12T22:05:26.280Z,8.20
2022-10-12T22:10:26.344Z,8.15
2022-10-12T22:15:26.159Z,8.10
2022-10-12T22:20:26.073Z,8.10
2022-10-12T22:25:26.024Z,8.08
2022-10-12T22:30:25.985Z,8.04
2022-10-12T22:35:25.893Z,8.07
2022-10-12T22:40:25.847Z,8.10
2022-10-12T22:45:28.073Z,8.11
2022-10-12T22:50:25.790Z,8.11
2022-10-12T22:55:25.617Z,8.10
2022-10-12T23:00:25.613Z,8.00
2022-10-12T23:05:25.492Z,8.02
2022-10-12T23:10:25.436Z,8.10
2022-10-12T23:15:25.398Z,8.17
2022-10-12T23:20:25.359Z,8.15
2022-10-12T23:25:25.240Z,8.07
2022-10-12T23:30:25.155Z,8.02
2022-10-12T23:35:25.097Z,8.03
2022-10-12T23:40:25.043Z,8.10
2022-10-12T23:45:24.952Z,8.08
2022-10-12T23:50:24.932Z,7.99
2022-10-12T23:55:24.870Z,7.99
